Time;durP1;ratioP1;P1;durP2;ratioP2;P2;SDS_P1;SDS_P2;PMS_P1;PMS_P2;Temp;Humidity;BMP_temperature;BMP_pressure;BME280_temperature;BME280_humidity;BME280_pressure;Samples;Min_cycle;Max_cycle;Signal;HPM_P1;HPM_P2
2023/06/23 00:01:26;;;;;;;4.53;3.60;;;18.30;99.90;;;;;;5069094;28;20249;-56
2023/06/23 00:03:55;;;;;;;4.20;3.80;;;18.40;99.90;;;;;;5072641;28;20280;-57
2023/06/23 00:06:23;;;;;;;6.17;4.47;;;18.30;99.90;;;;;;5072709;28;20218;-56
2023/06/23 00:08:52;;;;;;;5.03;4.27;;;18.20;99.90;;;;;;5072625;28;20228;-56
2023/06/23 00:11:20;;;;;;;6.10;5.37;;;18.20;99.90;;;;;;5062008;28;20231;-56
2023/06/23 00:13:50;;;;;;;7.10;5.10;;;18.30;99.90;;;;;;5052415;28;20588;-55
2023/06/23 00:16:18;;;;;;;5.30;4.37;;;18.30;99.90;;;;;;5058266;28;20222;-56
2023/06/23 00:18:46;;;;;;;5.90;4.80;;;18.30;99.90;;;;;;5052240;28;20226;-57
2023/06/23 00:21:14;;;;;;;4.80;4.40;;;18.30;99.90;;;;;;5061957;28;20303;-57
2023/06/23 00:23:42;;;;;;;5.93;5.07;;;18.30;99.90;;;;;;5071035;28;20232;-57
2023/06/23 00:26:12;;;;;;;6.10;4.90;;;18.30;99.90;;;;;;5076512;28;20229;-56
2023/06/23 00:28:40;;;;;;;5.67;5.07;;;18.30;99.90;;;;;;5059592;28;20232;-57
2023/06/23 00:31:08;;;;;;;5.40;4.90;;;18.20;99.90;;;;;;5072983;28;20238;-57
2023/06/23 00:33:36;;;;;;;5.20;4.67;;;18.20;99.90;;;;;;5076235;28;20317;-57
2023/06/23 00:36:04;;;;;;;6.67;5.23;;;18.30;99.90;;;;;;5076477;28;20224;-56
2023/06/23 00:38:33;;;;;;;6.00;5.20;;;18.20;99.90;;;;;;5076313;28;20645;-56
2023/06/23 00:41:02;;;;;;;5.90;5.30;;;18.20;99.90;;;;;;5067188;28;20751;-56
2023/06/23 00:43:32;;;;;;;5.43;4.83;;;18.20;99.90;;;;;;5056108;28;20224;-57
2023/06/23 00:46:08;;;;;;;5.70;5.10;;;18.20;99.90;;;;;;5061972;28;20305;-56
2023/06/23 00:48:37;;;;;;;6.20;4.97;;;18.20;99.90;;;;;;5054656;28;20248;-57
2023/06/23 00:51:06;;;;;;;5.50;5.00;;;18.20;99.90;;;;;;5056130;28;20232;-57
2023/06/23 00:53:35;;;;;;;4.80;4.40;;;18.30;99.90;;;;;;5070691;28;20696;-57
2023/06/23 00:56:04;;;;;;;5.10;4.70;;;18.30;99.90;;;;;;5059686;28;20222;-57
2023/06/23 00:58:36;;;;;;;5.60;5.10;;;18.20;99.90;;;;;;5074280;28;20224;-57
2023/06/23 01:01:05;;;;;;;5.80;5.17;;;18.20;99.90;;;;;;5071104;28;20237;-57
2023/06/23 01:03:35;;;;;;;5.87;5.27;;;18.20;99.90;;;;;;5074403;28;20596;-57
2023/06/23 01:06:16;;;;;;;5.80;5.30;;;18.20;99.90;;;;;;5074635;28;20636;-56
2023/06/23 01:08:54;;;;;;;7.77;5.00;;;18.20;99.90;;;;;;5075693;28;20259;-56
2023/06/23 01:11:26;;;;;;;5.30;4.80;;;18.20;99.90;;;;;;5063651;28;20332;-57
2023/06/23 01:14:05;;;;;;;5.53;5.07;;;18.10;99.90;;;;;;5054358;28;20242;-57
2023/06/23 01:16:38;;;;;;;6.30;5.70;;;18.10;99.90;;;;;;5061224;28;20304;-55
2023/06/23 01:19:17;;;;;;;5.60;5.10;;;18.10;99.90;;;;;;5046577;28;20260;-56
2023/06/23 01:21:59;;;;;;;7.73;5.40;;;18.10;99.90;;;;;;5069123;28;20228;-56
2023/06/23 01:24:42;;;;;;;5.23;4.73;;;18.10;99.90;;;;;;5072189;28;20221;-57
2023/06/23 01:27:29;;;;;;;5.03;4.50;;;18.10;99.90;;;;;;5060930;28;20230;-57
2023/06/23 01:30:02;;;;;;;5.70;4.43;;;18.10;99.90;;;;;;5072223;28;20616;-57
2023/06/23 01:32:39;;;;;;;6.43;4.90;;;18.10;99.90;;;;;;5073047;28;20312;-57
2023/06/23 01:35:13;;;;;;;7.07;5.17;;;18.10;99.90;;;;;;5074802;28;20225;-57
2023/06/23 01:37:49;;;;;;;6.70;5.27;;;18.10;99.90;;;;;;5073848;28;20696;-57
2023/06/23 01:40:19;;;;;;;5.13;4.63;;;18.00;99.90;;;;;;5073449;28;20213;-57
2023/06/23 01:42:56;;;;;;;7.43;5.23;;;18.00;99.90;;;;;;5055100;28;20274;-57
2023/06/23 01:45:28;;;;;;;6.00;5.40;;;18.00;99.90;;;;;;5059115;28;20320;-55
2023/06/23 01:48:02;;;;;;;6.40;5.40;;;18.00;99.90;;;;;;5055712;28;20692;-56
2023/06/23 01:50:32;;;;;;;6.33;5.63;;;18.00;99.90;;;;;;5054899;28;20232;-57
2023/06/23 01:53:03;;;;;;;7.20;5.20;;;18.00;99.90;;;;;;5057945;28;20233;-57
2023/06/23 01:55:35;;;;;;;6.63;5.43;;;18.00;99.90;;;;;;5071487;28;20738;-57
2023/06/23 01:58:06;;;;;;;6.87;6.27;;;18.00;99.90;;;;;;5035000;28;20214;-57
2023/06/23 02:00:38;;;;;;;6.80;6.17;;;18.00;99.90;;;;;;5052777;28;20599;-56
2023/06/23 02:03:07;;;;;;;6.73;6.03;;;17.90;99.90;;;;;;5059438;28;20228;-57
2023/06/23 02:05:37;;;;;;;7.47;5.63;;;17.90;99.90;;;;;;5074637;28;20585;-57
2023/06/23 02:08:07;;;;;;;6.30;5.40;;;17.90;99.90;;;;;;5074776;28;20291;-56
2023/06/23 02:10:36;;;;;;;8.60;5.93;;;17.90;99.90;;;;;;5070306;28;20237;-57
2023/06/23 02:13:08;;;;;;;6.37;5.67;;;17.90;99.90;;;;;;5053198;28;20331;-57
2023/06/23 02:15:38;;;;;;;6.00;5.40;;;17.90;99.90;;;;;;5058703;28;20408;-56
2023/06/23 02:18:10;;;;;;;7.07;5.60;;;17.90;99.90;;;;;;5046742;28;20230;-57
2023/06/23 02:20:40;;;;;;;7.07;5.77;;;17.90;99.90;;;;;;5051551;28;20226;-55
2023/06/23 02:23:10;;;;;;;7.47;5.30;;;17.90;99.90;;;;;;5058034;28;20229;-57
2023/06/23 02:25:40;;;;;;;7.27;5.60;;;18.00;99.90;;;;;;5069531;28;20288;-56
2023/06/23 02:28:13;;;;;;;6.73;6.13;;;18.00;99.90;;;;;;5073064;28;20233;-57
2023/06/23 02:30:45;;;;;;;6.23;5.60;;;17.90;99.90;;;;;;5070487;28;20245;-56
2023/06/23 02:33:13;;;;;;;5.90;5.30;;;17.90;99.90;;;;;;5074042;28;20581;-57
2023/06/23 02:35:42;;;;;;;7.40;5.20;;;17.90;99.90;;;;;;5072692;28;20229;-57
2023/06/23 02:38:16;;;;;;;8.30;5.43;;;17.90;99.90;;;;;;5074142;28;20285;-57
2023/06/23 02:40:45;;;;;;;8.70;5.70;;;17.90;99.90;;;;;;5067106;28;20242;-57
2023/06/23 02:43:18;;;;;;;7.20;5.10;;;17.90;99.90;;;;;;5054054;28;20219;-57
2023/06/23 02:45:53;;;;;;;6.87;4.93;;;17.80;99.90;;;;;;5058701;28;20268;-56
2023/06/23 02:48:25;;;;;;;5.53;4.97;;;17.90;99.90;;;;;;5053840;28;20230;-57
2023/06/23 02:50:57;;;;;;;7.57;5.07;;;17.80;99.90;;;;;;5052669;28;20255;-57
2023/06/23 02:53:29;;;;;;;6.70;5.17;;;17.90;99.90;;;;;;5052356;28;20270;-57
2023/06/23 02:56:02;;;;;;;6.57;5.43;;;17.90;99.90;;;;;;5072875;28;20221;-57
2023/06/23 02:58:31;;;;;;;5.47;4.90;;;17.90;99.90;;;;;;5071842;28;20324;-57
2023/06/23 03:01:02;;;;;;;6.40;4.90;;;17.80;99.90;;;;;;5068765;28;20237;-57
2023/06/23 03:03:33;;;;;;;6.30;5.57;;;17.70;99.90;;;;;;5073400;28;20279;-57
2023/06/23 03:06:02;;;;;;;5.90;5.30;;;17.80;99.90;;;;;;5072289;28;20298;-57
2023/06/23 03:08:31;;;;;;;6.40;5.80;;;17.70;99.90;;;;;;5072074;28;20711;-57
2023/06/23 03:10:59;;;;;;;6.47;5.77;;;17.70;99.90;;;;;;5065983;28;20264;-57
2023/06/23 03:13:27;;;;;;;6.73;5.57;;;17.70;99.90;;;;;;5051999;28;20234;-56
2023/06/23 03:15:59;;;;;;;6.33;5.10;;;17.70;99.90;;;;;;5057752;28;20234;-56
2023/06/23 03:18:33;;;;;;;7.47;5.57;;;17.70;99.90;;;;;;5053139;28;20230;-56
2023/06/23 03:21:05;;;;;;;6.40;5.80;;;17.70;99.90;;;;;;5061020;28;20303;-57
2023/06/23 03:23:39;;;;;;;6.23;5.60;;;17.70;99.90;;;;;;5070599;28;20218;-57
2023/06/23 03:26:09;;;;;;;8.70;5.43;;;17.70;99.90;;;;;;5057727;28;20647;-57
2023/06/23 03:28:40;;;;;;;6.93;5.47;;;17.70;99.90;;;;;;5071188;28;20229;-57
2023/06/23 03:31:12;;;;;;;6.10;5.50;;;17.70;99.90;;;;;;5069784;28;20241;-55
2023/06/23 03:33:44;;;;;;;5.93;5.33;;;17.70;99.90;;;;;;5072829;28;20684;-57
2023/06/23 03:36:17;;;;;;;5.60;5.10;;;17.70;99.90;;;;;;5071840;28;20336;-57
2023/06/23 03:38:57;;;;;;;6.00;5.17;;;17.70;99.90;;;;;;5072866;28;20302;-57
2023/06/23 03:41:29;;;;;;;5.40;4.83;;;17.70;99.90;;;;;;5061653;28;20237;-56
2023/06/23 03:44:00;;;;;;;5.70;5.10;;;17.60;99.90;;;;;;5052917;28;20584;-56
2023/06/23 03:46:36;;;;;;;6.47;5.07;;;17.70;99.90;;;;;;5058396;28;20225;-56
2023/06/23 03:49:09;;;;;;;6.43;4.80;;;17.60;99.90;;;;;;5044781;28;20233;-57
2023/06/23 03:51:40;;;;;;;7.27;4.73;;;17.60;99.90;;;;;;5052691;28;20230;-57
2023/06/23 03:54:10;;;;;;;6.53;4.40;;;17.70;99.90;;;;;;5055823;28;20588;-57
2023/06/23 03:56:40;;;;;;;5.43;4.33;;;17.70;99.90;;;;;;5072285;28;20309;-57
2023/06/23 03:59:09;;;;;;;5.83;4.30;;;17.80;99.90;;;;;;5072777;28;20221;-57
2023/06/23 04:01:38;;;;;;;4.67;4.07;;;17.80;99.90;;;;;;5069171;28;20240;-57
2023/06/23 04:04:09;;;;;;;7.63;4.83;;;17.90;99.90;;;;;;5032811;28;20648;-57
2023/06/23 04:06:41;;;;;;;4.57;4.17;;;18.00;99.90;;;;;;5032587;28;20233;-57
2023/06/23 04:09:11;;;;;;;4.90;4.40;;;17.90;99.90;;;;;;5032748;28;20231;-57
2023/06/23 04:11:40;;;;;;;5.70;4.53;;;17.90;99.90;;;;;;5045373;28;20689;-56
2023/06/23 04:14:10;;;;;;;5.87;4.40;;;17.90;99.90;;;;;;5052477;28;20322;-57
2023/06/23 04:16:41;;;;;;;4.67;4.00;;;17.80;99.90;;;;;;5052384;28;20223;-57
2023/06/23 04:19:13;;;;;;;4.83;4.23;;;17.90;99.90;;;;;;5052489;28;20249;-57
2023/06/23 04:21:42;;;;;;;5.60;4.37;;;17.90;99.90;;;;;;5065464;28;20249;-57
2023/06/23 04:24:13;;;;;;;4.87;4.30;;;17.90;99.90;;;;;;5069359;28;20244;-57
2023/06/23 04:26:45;;;;;;;6.57;4.30;;;17.90;99.90;;;;;;5072254;28;20256;-57
2023/06/23 04:29:15;;;;;;;5.03;4.53;;;18.00;99.90;;;;;;5068281;28;20250;-56
2023/06/23 04:31:47;;;;;;;6.17;4.37;;;17.90;99.90;;;;;;5057911;28;20299;-57
2023/06/23 04:34:16;;;;;;;5.37;4.17;;;17.90;99.90;;;;;;5072272;28;20220;-56
2023/06/23 04:36:49;;;;;;;6.10;4.27;;;17.90;99.90;;;;;;5072252;28;20224;-57
2023/06/23 04:39:27;;;;;;;5.63;4.40;;;18.00;99.90;;;;;;5072463;28;20592;-57
2023/06/23 04:41:59;;;;;;;4.70;4.27;;;17.90;99.90;;;;;;5056943;28;20265;-57
2023/06/23 04:44:30;;;;;;;7.10;4.57;;;17.90;99.90;;;;;;5052088;28;20220;-56
2023/06/23 04:47:02;;;;;;;5.90;4.33;;;17.90;99.90;;;;;;5052221;28;20229;-57
2023/06/23 04:49:34;;;;;;;6.67;4.73;;;17.90;99.90;;;;;;5052064;28;20250;-57
2023/06/23 04:52:06;;;;;;;6.33;5.13;;;17.90;99.90;;;;;;5052117;28;20234;-57
2023/06/23 04:54:41;;;;;;;5.23;4.37;;;17.90;99.90;;;;;;5059695;28;20246;-55
2023/06/23 04:57:14;;;;;;;6.90;4.40;;;17.90;99.90;;;;;;5072106;28;20405;-57
2023/06/23 04:59:47;;;;;;;7.33;4.17;;;18.00;99.90;;;;;;5069116;28;20304;-56
2023/06/23 05:02:16;;;;;;;4.90;4.40;;;18.00;99.90;;;;;;5071635;28;20233;-56
2023/06/23 05:04:48;;;;;;;6.13;4.80;;;18.00;99.90;;;;;;5072237;28;20647;-55
2023/06/23 05:07:19;;;;;;;7.30;4.77;;;18.00;99.90;;;;;;5072148;28;20726;-56
2023/06/23 05:09:50;;;;;;;8.07;5.70;;;18.00;99.90;;;;;;5063921;28;20241;-57
2023/06/23 05:12:20;;;;;;;10.17;6.30;;;18.10;99.90;;;;;;5071364;28;20691;-57
2023/06/23 05:14:51;;;;;;;8.93;5.20;;;18.20;99.90;;;;;;5075509;28;20258;-57
2023/06/23 05:17:20;;;;;;;7.47;5.77;;;18.10;99.90;;;;;;5075987;28;20229;-57
2023/06/23 05:19:51;;;;;;;6.13;5.03;;;18.10;99.90;;;;;;5075488;28;20679;-55
2023/06/23 05:22:22;;;;;;;5.80;5.20;;;18.00;99.90;;;;;;5075243;28;20687;-57
2023/06/23 05:24:54;;;;;;;7.90;4.97;;;18.00;99.90;;;;;;5072824;28;20216;-56
2023/06/23 05:27:25;;;;;;;7.60;5.90;;;18.00;99.90;;;;;;5070336;28;20688;-57
2023/06/23 05:29:57;;;;;;;7.63;6.40;;;18.10;99.90;;;;;;5064800;28;20321;-57
2023/06/23 05:32:29;;;;;;;7.83;6.27;;;18.20;99.90;;;;;;5066540;28;20226;-57
2023/06/23 05:35:03;;;;;;;9.37;5.87;;;18.10;99.90;;;;;;5063787;28;20257;-56
2023/06/23 05:37:34;;;;;;;7.50;5.23;;;18.10;99.90;;;;;;5059175;28;20760;-57
2023/06/23 05:40:03;;;;;;;8.17;6.87;;;18.10;99.90;;;;;;5055234;28;20765;-57
2023/06/23 05:42:32;;;;;;;7.90;7.13;;;18.10;99.90;;;;;;5055059;28;20306;-57
2023/06/23 05:45:01;;;;;;;6.17;5.57;;;18.20;99.90;;;;;;5055218;28;20645;-57
2023/06/23 05:47:35;;;;;;;7.17;6.37;;;18.10;99.90;;;;;;5069184;28;20392;-55
2023/06/23 05:50:12;;;;;;;10.13;6.80;;;18.20;99.90;;;;;;5063200;28;20672;-57
2023/06/23 05:52:45;;;;;;;7.63;6.83;;;18.20;99.90;;;;;;5063773;28;20226;-57
2023/06/23 05:55:13;;;;;;;9.33;6.30;;;18.20;99.90;;;;;;5071709;28;20315;-56
2023/06/23 05:57:43;;;;;;;9.77;7.00;;;18.20;99.90;;;;;;5058402;28;20231;-56
2023/06/23 06:00:14;;;;;;;8.63;7.73;;;18.30;99.90;;;;;;5058772;28;20254;-53
2023/06/23 06:02:46;;;;;;;9.63;6.93;;;18.30;99.90;;;;;;5074845;28;20230;-56
2023/06/23 06:05:18;;;;;;;9.33;6.90;;;18.30;99.90;;;;;;5074811;28;20214;-57
2023/06/23 06:07:47;;;;;;;7.70;6.90;;;18.50;99.90;;;;;;5071195;28;20234;-57
2023/06/23 06:10:16;;;;;;;7.83;7.03;;;18.50;99.90;;;;;;5073579;28;20218;-57
2023/06/23 06:12:46;;;;;;;8.20;7.33;;;18.60;99.90;;;;;;5054568;28;20219;-57
2023/06/23 06:15:18;;;;;;;10.77;8.20;;;18.70;99.90;;;;;;5054550;28;20264;-57
2023/06/23 06:17:47;;;;;;;8.60;7.70;;;18.70;99.90;;;;;;5064953;28;20222;-57
2023/06/23 06:20:19;;;;;;;9.40;7.73;;;18.70;99.90;;;;;;5058385;28;20231;-57
2023/06/23 06:22:50;;;;;;;12.60;8.50;;;18.70;99.90;;;;;;5074164;28;20290;-57
2023/06/23 06:25:24;;;;;;;10.63;7.50;;;18.70;99.90;;;;;;5061209;28;20301;-57
2023/06/23 06:27:54;;;;;;;9.00;8.03;;;18.80;99.90;;;;;;5071117;28;20234;-57
2023/06/23 06:30:24;;;;;;;11.30;8.70;;;18.80;99.90;;;;;;5070848;28;20336;-57
2023/06/23 06:32:54;;;;;;;9.53;8.63;;;18.80;99.90;;;;;;5073560;28;20231;-57
2023/06/23 06:35:25;;;;;;;8.93;8.03;;;18.70;99.90;;;;;;5074101;28;20256;-57
2023/06/23 06:37:56;;;;;;;9.37;8.00;;;18.70;99.90;;;;;;5059756;28;20234;-56
2023/06/23 06:40:26;;;;;;;9.30;8.40;;;18.70;99.90;;;;;;5051346;28;20238;-55
2023/06/23 06:42:54;;;;;;;10.23;8.70;;;18.70;99.90;;;;;;5034137;28;20225;-57
2023/06/23 06:45:22;;;;;;;10.70;9.70;;;18.70;99.90;;;;;;5034104;28;20232;-57
2023/06/23 06:47:52;;;;;;;9.03;8.13;;;18.80;99.90;;;;;;5069538;28;20253;-57
2023/06/23 06:50:21;;;;;;;9.60;8.60;;;18.70;99.90;;;;;;5053910;28;20225;-57
2023/06/23 06:52:51;;;;;;;10.20;9.17;;;18.80;99.90;;;;;;5054060;28;20231;-57
2023/06/23 06:55:21;;;;;;;11.20;8.93;;;18.80;99.90;;;;;;5067374;28;20233;-57
2023/06/23 06:57:49;;;;;;;13.87;10.77;;;18.70;99.90;;;;;;5073598;28;20225;-57
2023/06/23 07:00:19;;;;;;;11.00;9.37;;;18.70;99.90;;;;;;5047216;28;20226;-57
2023/06/23 07:02:48;;;;;;;11.83;9.67;;;18.70;99.90;;;;;;5073435;28;20612;-57
2023/06/23 07:05:17;;;;;;;12.77;10.30;;;18.70;99.90;;;;;;5068276;28;20255;-58
2023/06/23 07:07:46;;;;;;;10.23;8.60;;;18.70;99.90;;;;;;5070823;28;20221;-57
2023/06/23 07:10:15;;;;;;;9.87;8.87;;;18.60;99.90;;;;;;5072222;28;20229;-57
2023/06/23 07:12:43;;;;;;;9.50;8.50;;;18.60;99.90;;;;;;5053278;28;20297;-57
2023/06/23 07:15:11;;;;;;;10.33;8.80;;;18.70;99.90;;;;;;5057160;28;20222;-57
2023/06/23 07:17:40;;;;;;;10.13;9.00;;;18.70;99.90;;;;;;5069254;28;20225;-57
2023/06/23 07:20:09;;;;;;;13.53;10.07;;;18.80;99.90;;;;;;5072950;28;20689;-57
2023/06/23 07:22:37;;;;;;;10.60;9.40;;;18.80;99.90;;;;;;5064299;28;20713;-57
2023/06/23 07:25:06;;;;;;;10.13;9.13;;;18.70;99.90;;;;;;5067785;28;20236;-57
2023/06/23 07:27:35;;;;;;;10.77;9.57;;;18.70;99.90;;;;;;5066689;28;20623;-56
2023/06/23 07:30:04;;;;;;;10.80;9.50;;;18.80;99.90;;;;;;5060102;28;20234;-57
2023/06/23 07:32:32;;;;;;;11.27;9.80;;;18.80;99.90;;;;;;5063770;28;20240;-57
2023/06/23 07:35:00;;;;;;;10.37;9.17;;;18.80;99.90;;;;;;5063720;28;20697;-56
2023/06/23 07:37:28;;;;;;;12.03;9.90;;;18.90;99.90;;;;;;5058073;28;20698;-56
2023/06/23 07:39:57;;;;;;;11.80;9.70;;;18.90;99.90;;;;;;5051733;28;20324;-57
2023/06/23 07:42:26;;;;;;;10.83;9.83;;;18.90;99.90;;;;;;5032149;28;20341;-57
2023/06/23 07:44:56;;;;;;;10.40;9.30;;;18.90;99.90;;;;;;5033159;28;20227;-55
2023/06/23 07:47:24;;;;;;;9.93;8.87;;;19.10;99.90;;;;;;5032853;28;20579;-55
2023/06/23 07:49:52;;;;;;;10.87;9.87;;;19.10;99.90;;;;;;5032942;28;20258;-57
2023/06/23 07:52:20;;;;;;;11.97;10.43;;;19.10;99.90;;;;;;5032890;28;20227;-57
2023/06/23 07:54:48;;;;;;;11.47;10.07;;;19.20;99.90;;;;;;5055270;28;20585;-57
2023/06/23 07:57:16;;;;;;;11.87;10.67;;;19.30;99.90;;;;;;5072877;28;20227;-57
2023/06/23 07:59:44;;;;;;;12.00;10.17;;;19.30;99.90;;;;;;5069678;28;20670;-57
2023/06/23 08:02:14;;;;;;;11.27;10.17;;;19.40;99.90;;;;;;5072161;28;20254;-57
2023/06/23 08:04:42;;;;;;;12.13;10.53;;;19.40;99.90;;;;;;5072549;28;20313;-57
2023/06/23 08:07:10;;;;;;;13.33;10.57;;;19.50;99.90;;;;;;5071928;28;20616;-55
2023/06/23 08:09:38;;;;;;;12.30;10.97;;;19.50;99.90;;;;;;5072427;28;20229;-57
2023/06/23 08:12:07;;;;;;;13.73;12.40;;;19.50;99.90;;;;;;5055795;28;20723;-56
2023/06/23 08:14:36;;;;;;;12.80;10.77;;;19.40;99.90;;;;;;5052404;28;20222;-57
2023/06/23 08:17:04;;;;;;;13.60;12.20;;;19.40;99.90;;;;;;5044206;28;20227;-57
2023/06/23 08:19:35;;;;;;;13.00;11.03;;;19.40;99.90;;;;;;5062727;28;20223;-57
2023/06/23 08:22:04;;;;;;;12.33;11.13;;;19.40;99.90;;;;;;5064707;28;20223;-56
2023/06/23 08:24:32;;;;;;;12.90;11.60;;;19.40;99.90;;;;;;5069088;28;20230;-57
2023/06/23 08:27:00;;;;;;;13.17;11.90;;;19.50;99.90;;;;;;5061267;28;20301;-56
2023/06/23 08:29:28;;;;;;;12.53;11.40;;;19.50;99.90;;;;;;5044285;28;20631;-56
2023/06/23 08:31:56;;;;;;;13.10;11.77;;;19.50;99.90;;;;;;5038726;28;20796;-55
2023/06/23 08:34:25;;;;;;;14.30;12.80;;;19.50;99.90;;;;;;5040371;28;20770;-55
2023/06/23 08:36:54;;;;;;;14.93;12.37;;;19.60;99.90;;;;;;5037342;28;20784;-56
2023/06/23 08:39:22;;;;;;;15.70;12.67;;;19.60;99.90;;;;;;5040313;28;20241;-57
2023/06/23 08:41:51;;;;;;;13.83;12.47;;;19.60;99.90;;;;;;5038652;28;20234;-57
2023/06/23 08:44:23;;;;;;;14.67;13.17;;;19.70;99.90;;;;;;5040903;28;20305;-57
2023/06/23 08:46:56;;;;;;;19.40;13.87;;;19.80;99.90;;;;;;5041552;28;20234;-57
2023/06/23 08:49:32;;;;;;;14.13;12.63;;;19.80;99.90;;;;;;5043520;28;20234;-57
2023/06/23 08:52:02;;;;;;;15.23;13.10;;;19.80;99.90;;;;;;5045196;28;20239;-58
2023/06/23 08:54:31;;;;;;;14.40;12.60;;;19.80;99.90;;;;;;5046152;28;20242;-57
2023/06/23 08:56:59;;;;;;;13.43;12.13;;;19.80;99.90;;;;;;5044316;28;20709;-55
2023/06/23 08:59:27;;;;;;;14.57;13.07;;;19.90;99.90;;;;;;5045554;28;20696;-56
2023/06/23 09:01:55;;;;;;;13.90;12.37;;;20.00;99.90;;;;;;5043128;28;20235;-56
2023/06/23 09:04:23;;;;;;;13.93;11.20;;;20.00;99.90;;;;;;5044219;28;20698;-57
2023/06/23 09:06:52;;;;;;;13.37;11.97;;;20.00;99.90;;;;;;5040820;28;20227;-57
2023/06/23 09:09:21;;;;;;;13.00;11.70;;;20.00;99.90;;;;;;5043859;28;20235;-57
2023/06/23 09:11:50;;;;;;;12.03;10.87;;;20.10;99.90;;;;;;5042354;28;20319;-56
2023/06/23 09:14:19;;;;;;;13.53;12.13;;;20.20;99.90;;;;;;5044928;28;20749;-57
2023/06/23 09:16:47;;;;;;;13.30;11.80;;;20.30;99.90;;;;;;5042729;28;20249;-58
2023/06/23 09:19:15;;;;;;;14.87;12.13;;;20.40;99.90;;;;;;5045744;28;20235;-55
2023/06/23 09:21:47;;;;;;;14.40;11.73;;;20.40;99.90;;;;;;5044034;28;21569;-57
2023/06/23 09:24:16;;;;;;;15.20;12.43;;;20.40;99.90;;;;;;5045509;28;20249;-57
2023/06/23 09:26:48;;;;;;;14.17;11.77;;;20.30;99.90;;;;;;5042807;28;20229;-55
2023/06/23 09:29:20;;;;;;;12.67;11.47;;;20.30;99.90;;;;;;5045088;28;20334;-56
2023/06/23 09:31:49;;;;;;;11.73;10.53;;;20.30;99.90;;;;;;5044159;28;20285;-55
2023/06/23 09:34:22;;;;;;;11.13;10.03;;;20.20;99.90;;;;;;5044842;28;20307;-56
2023/06/23 09:36:52;;;;;;;10.80;9.57;;;20.10;99.90;;;;;;5043037;28;20220;-57
2023/06/23 09:39:20;;;;;;;11.73;10.47;;;20.10;99.90;;;;;;5043873;28;20224;-57
2023/06/23 09:41:57;;;;;;;12.27;10.77;;;20.10;99.90;;;;;;5043052;28;20230;-56
2023/06/23 09:44:34;;;;;;;11.33;10.07;;;20.20;99.90;;;;;;5044424;28;20338;-57
2023/06/23 09:47:03;;;;;;;10.70;9.53;;;20.20;99.90;;;;;;5042251;28;20230;-55
2023/06/23 09:49:39;;;;;;;11.90;10.70;;;20.20;99.90;;;;;;5043979;28;20235;-57
2023/06/23 09:52:08;;;;;;;11.77;10.53;;;20.30;99.90;;;;;;5044334;28;20265;-55
2023/06/23 09:54:39;;;;;;;11.33;9.53;;;20.30;99.90;;;;;;5045371;28;20242;-57
2023/06/23 09:57:09;;;;;;;10.20;9.20;;;20.40;99.90;;;;;;5043643;28;20227;-57
2023/06/23 09:59:39;;;;;;;10.87;9.23;;;20.50;99.90;;;;;;5045502;28;20602;-57
2023/06/23 10:02:09;;;;;;;9.13;8.23;;;20.70;99.90;;;;;;5043949;28;20334;-57
2023/06/23 10:04:37;;;;;;;10.23;8.80;;;20.80;99.90;;;;;;5043314;28;20242;-55
2023/06/23 10:07:24;;;;;;;11.40;9.63;;;21.00;99.90;;;;;;5040942;28;20224;-58
2023/06/23 10:09:53;;;;;;;10.43;9.33;;;21.10;99.90;;;;;;5044552;28;20239;-57
2023/06/23 10:12:41;;;;;;;10.63;9.53;;;21.20;99.90;;;;;;5043270;28;20786;-55
2023/06/23 10:15:10;;;;;;;9.93;8.80;;;21.30;99.90;;;;;;5044030;28;20227;-56
2023/06/23 10:17:39;;;;;;;9.60;8.60;;;21.40;99.90;;;;;;5041039;28;20231;-57
2023/06/23 10:20:08;;;;;;;9.67;8.77;;;21.50;99.90;;;;;;5043773;28;20732;-57
2023/06/23 10:22:39;;;;;;;9.77;8.03;;;21.60;99.90;;;;;;5043189;28;20240;-55
2023/06/23 10:25:10;;;;;;;9.23;8.33;;;21.70;99.90;;;;;;5044164;28;20680;-57
2023/06/23 10:27:42;;;;;;;9.60;8.63;;;21.80;99.90;;;;;;5039676;28;20239;-56
2023/06/23 10:30:12;;;;;;;8.70;7.80;;;21.80;99.90;;;;;;5042543;28;20250;-56
2023/06/23 10:32:45;;;;;;;10.00;8.53;;;21.90;99.90;;;;;;5041640;28;20227;-57
2023/06/23 10:35:15;;;;;;;8.77;7.70;;;22.00;99.90;;;;;;5042318;28;20231;-56
2023/06/23 10:37:47;;;;;;;10.63;8.50;;;22.00;99.90;;;;;;5039674;28;20234;-55
2023/06/23 10:40:18;;;;;;;10.53;8.43;;;22.00;99.90;;;;;;5038880;28;20314;-56
2023/06/23 10:42:50;;;;;;;8.70;7.80;;;22.00;99.90;;;;;;5042420;28;20728;-57
2023/06/23 10:45:19;;;;;;;9.37;8.23;;;22.00;99.90;;;;;;5044465;28;21450;-56
2023/06/23 10:47:47;;;;;;;11.37;9.67;;;22.10;99.90;;;;;;5041917;28;20231;-57
2023/06/23 10:50:16;;;;;;;10.43;8.70;;;22.10;99.90;;;;;;5041869;28;20236;-56
2023/06/23 10:52:44;;;;;;;9.10;8.20;;;22.00;99.90;;;;;;5042224;28;20236;-57
2023/06/23 10:55:42;;;;;;;10.27;9.27;;;22.10;99.90;;;;;;5043391;28;20230;-56
2023/06/23 10:58:49;;;;;;;9.90;8.93;;;22.00;99.90;;;;;;5015201;28;20256;-55
2023/06/23 11:01:17;;;;;;;8.53;7.60;;;22.10;99.90;;;;;;5042314;28;20350;-57
2023/06/23 11:03:45;;;;;;;9.90;8.90;;;22.20;99.90;;;;;;5044403;28;20591;-56
2023/06/23 11:06:25;;;;;;;9.03;8.13;;;22.30;99.90;;;;;;5044072;28;20240;-55
2023/06/23 11:08:53;;;;;;;8.87;7.97;;;22.30;99.90;;;;;;5044534;28;20227;-55
2023/06/23 11:11:32;;;;;;;10.43;8.30;;;22.40;99.90;;;;;;5044463;28;20659;-57
2023/06/23 11:14:02;;;;;;;8.43;7.63;;;22.50;99.90;;;;;;5045121;28;20223;-57
2023/06/23 11:16:34;;;;;;;8.30;7.47;;;22.50;99.90;;;;;;5039409;28;20280;-57
2023/06/23 11:19:02;;;;;;;10.17;8.37;;;22.60;99.90;;;;;;5042276;28;20614;-55
2023/06/23 11:21:32;;;;;;;8.23;7.43;;;22.60;99.90;;;;;;5043589;28;20216;-57
2023/06/23 11:24:11;;;;;;;8.40;7.53;;;22.60;99.90;;;;;;5069713;28;20227;-57
2023/06/23 11:26:50;;;;;;;7.40;6.70;;;22.80;99.90;;;;;;5072993;28;20608;-57
2023/06/23 11:29:21;;;;;;;8.37;7.63;;;23.10;99.90;;;;;;5072846;28;20226;-56
2023/06/23 11:32:17;;;;;;;8.57;7.77;;;23.40;99.90;;;;;;5066416;28;20231;-57
2023/06/23 11:34:56;;;;;;;9.07;7.53;;;23.70;99.90;;;;;;5071657;28;20258;-57
2023/06/23 11:37:27;;;;;;;8.47;7.30;;;23.90;99.90;;;;;;5072420;28;20302;-56
2023/06/23 11:39:56;;;;;;;8.23;7.40;;;24.40;99.90;;;;;;5073011;28;20224;-57
2023/06/23 11:42:24;;;;;;;9.70;7.30;;;24.60;99.90;;;;;;5053784;28;20230;-58
2023/06/23 11:44:57;;;;;;;7.97;7.17;;;24.70;99.90;;;;;;5052986;28;20222;-57
2023/06/23 11:47:25;;;;;;;8.60;7.23;;;24.80;99.90;;;;;;5052766;28;20219;-57
2023/06/23 11:49:58;;;;;;;7.80;7.03;;;24.80;99.90;;;;;;5052899;28;20222;-58
2023/06/23 11:52:28;;;;;;;9.17;6.17;;;24.90;99.90;;;;;;5051399;28;20230;-56
2023/06/23 11:54:57;;;;;;;9.43;6.90;;;25.20;99.90;;;;;;5063378;28;20248;-57
2023/06/23 11:57:25;;;;;;;7.27;6.57;;;25.10;99.90;;;;;;5071216;28;20228;-56
2023/06/23 11:59:53;;;;;;;9.33;6.67;;;25.40;99.90;;;;;;5069913;28;20767;-58
2023/06/23 12:02:23;;;;;;;7.77;6.97;;;25.60;99.90;;;;;;5072307;28;20261;-58
2023/06/23 12:04:51;;;;;;;8.37;7.27;;;25.40;99.90;;;;;;5072679;28;20229;-57
2023/06/23 12:07:20;;;;;;;8.17;6.90;;;25.30;99.90;;;;;;5068077;28;20631;-57
2023/06/23 12:09:48;;;;;;;8.37;7.03;;;24.90;99.90;;;;;;5051154;28;20253;-57
2023/06/23 12:12:17;;;;;;;7.43;6.73;;;24.70;99.90;;;;;;5034537;28;20318;-58
2023/06/23 12:14:45;;;;;;;6.63;6.00;;;24.70;99.90;;;;;;5032536;28;20309;-58
2023/06/23 12:17:13;;;;;;;6.60;5.90;;;25.00;99.90;;;;;;5035026;28;20224;-57
2023/06/23 12:19:43;;;;;;;6.40;5.80;;;25.00;99.90;;;;;;5058135;28;20233;-58
2023/06/23 12:22:16;;;;;;;6.83;6.00;;;25.10;99.90;;;;;;5070961;28;20712;-58
2023/06/23 12:24:45;;;;;;;6.70;6.00;;;25.10;99.90;;;;;;5069087;28;20231;-58
2023/06/23 12:27:13;;;;;;;6.27;5.67;;;25.30;99.90;;;;;;5072466;28;20225;-57
2023/06/23 12:29:42;;;;;;;7.70;5.53;;;25.30;99.90;;;;;;5069224;28;20304;-58
2023/06/23 12:32:10;;;;;;;6.33;5.47;;;25.60;99.90;;;;;;5068623;28;20235;-58
2023/06/23 12:34:45;;;;;;;5.83;5.27;;;25.80;99.90;;;;;;5032524;28;20237;-58
2023/06/23 12:37:14;;;;;;;5.00;4.60;;;25.80;99.90;;;;;;5032948;28;20231;-58
2023/06/23 12:39:52;;;;;;;6.10;5.30;;;25.90;99.90;;;;;;5037945;28;20233;-58
2023/06/23 12:42:22;;;;;;;5.10;4.60;;;26.20;99.90;;;;;;5067649;28;20282;-57
2023/06/23 12:44:51;;;;;;;5.03;4.53;;;26.40;99.90;;;;;;5072247;28;20214;-57
2023/06/23 12:47:19;;;;;;;5.17;4.67;;;26.10;99.90;;;;;;5072282;28;20244;-57
2023/06/23 12:49:50;;;;;;;6.07;5.20;;;26.10;99.90;;;;;;5072136;28;20580;-57
2023/06/23 12:52:19;;;;;;;6.73;4.70;;;25.70;99.90;;;;;;5072317;28;20215;-57
2023/06/23 12:54:47;;;;;;;4.30;3.93;;;25.70;99.90;;;;;;5068960;28;20234;-57
2023/06/23 12:57:15;;;;;;;4.60;4.20;;;25.60;99.90;;;;;;5071838;28;20226;-57
2023/06/23 12:59:43;;;;;;;9.13;4.80;;;25.70;99.90;;;;;;5062962;28;20585;-57
2023/06/23 13:02:14;;;;;;;4.57;4.17;;;25.50;99.90;;;;;;5071652;28;20649;-58